Aviation Digital Data Service (ADDS)

Output produced by METARs form (1457 UTC 24 August 2019)
found at http://www.aviationweather.gov/metar/data/
 
METAR text: CYQB 241400Z 10006KT 070V140 30SM SCT037 18/12 A3025 RMK SC4 SLP245 DENSITY ALT 300FT
Conditions at: CYQB (QUEBEC , QC, CA) observed 1400 UTC 24 August 2019
Temperature: 18.0°C (64°F)
Dewpoint: 12.0°C (54°F) [RH = 68%]
Pressure (altimeter): 30.25 inches Hg (1024.5 mb)
[Sea-level pressure: 1024.5 mb]
Winds: from the E (100 degrees) at 7 MPH (6 knots; 3.1 m/s)
Visibility: 30 miles (48 km)
Ceiling: at least 12,000 feet AGL
Clouds: scattered clouds at 3700 feet AGL
Weather: no significant weather observed at this time

METAR text: CYQB 241300Z 07005KT 020V110 30SM FEW032 BKN037 16/12 A3023 RMK CF1SC5 CF TR SLP241
Conditions at: CYQB (QUEBEC , QC, CA) observed 1300 UTC 24 August 2019
Temperature: 16.0°C (61°F)
Dewpoint: 12.0°C (54°F) [RH = 77%]
Pressure (altimeter): 30.23 inches Hg (1023.8 mb)
[Sea-level pressure: 1024.1 mb]
Winds: from the ENE (70 degrees) at 6 MPH (5 knots; 2.6 m/s)
Visibility: 30 miles (48 km)
Ceiling: 3700 feet AGL
Clouds: few clouds at 3200 feet AGL
broken clouds at 3700 feet AGL
Weather: no significant weather observed at this time

METAR text: CYQB 241200Z 05004KT 30SM SCT045 15/11 A3021 RMK SC3 SLP234
Conditions at: CYQB (QUEBEC , QC, CA) observed 1200 UTC 24 August 2019
Temperature: 15.0°C (59°F)
Dewpoint: 11.0°C (52°F) [RH = 77%]
Pressure (altimeter): 30.21 inches Hg (1023.1 mb)
[Sea-level pressure: 1023.4 mb]
Winds: from the NE (50 degrees) at 5 MPH (4 knots; 2.1 m/s)
Visibility: 30 miles (48 km)
Ceiling: at least 12,000 feet AGL
Clouds: scattered clouds at 4500 feet AGL
Weather: no significant weather observed at this time

METAR text: CYQB 241100Z 06003KT 360V080 30SM FEW035 BKN040 13/12 A3018 RMK SC1SC6 SC TR SLP224
Conditions at: CYQB (QUEBEC , QC, CA) observed 1100 UTC 24 August 2019
Temperature: 13.0°C (55°F)
Dewpoint: 12.0°C (54°F) [RH = 94%]
Pressure (altimeter): 30.18 inches Hg (1022.1 mb)
[Sea-level pressure: 1022.4 mb]
Winds: from the ENE (60 degrees) at 3 MPH (3 knots; 1.5 m/s)
Visibility: 30 miles (48 km)
Ceiling: 4000 feet AGL
Clouds: few clouds at 3500 feet AGL
broken clouds at 4000 feet AGL
Weather: no significant weather observed at this time

METAR text: CYQB 241000Z 03004KT 30SM FEW035 BKN040 12/10 A3015 RMK SC1SC5 SC TR SLP214
Conditions at: CYQB (QUEBEC , QC, CA) observed 1000 UTC 24 August 2019
Temperature: 12.0°C (54°F)
Dewpoint: 10.0°C (50°F) [RH = 88%]
Pressure (altimeter): 30.15 inches Hg (1021.1 mb)
[Sea-level pressure: 1021.4 mb]
Winds: from the NNE (30 degrees) at 5 MPH (4 knots; 2.1 m/s)
Visibility: 30 miles (48 km)
Ceiling: 4000 feet AGL
Clouds: few clouds at 3500 feet AGL
broken clouds at 4000 feet AGL
Weather: no significant weather observed at this time

METAR text: CYQB 240900Z 31004KT 15SM FEW045 11/10 A3011 RMK SC1 SLP200
Conditions at: CYQB (QUEBEC , QC, CA) observed 0900 UTC 24 August 2019
Temperature: 11.0°C (52°F)
Dewpoint: 10.0°C (50°F) [RH = 94%]
Pressure (altimeter): 30.11 inches Hg (1019.7 mb)
[Sea-level pressure: 1020.0 mb]
Winds: from the NW (310 degrees) at 5 MPH (4 knots; 2.1 m/s)
Visibility: 15 miles (24 km)
Ceiling: at least 12,000 feet AGL
Clouds: few clouds at 4500 feet AGL
Weather: no significant weather observed at this time

METAR text: CYQB 240800Z 28004KT 15SM SKC 11/10 A3009 RMK SLP194
Conditions at: CYQB (QUEBEC , QC, CA) observed 0800 UTC 24 August 2019
Temperature: 11.0°C (52°F)
Dewpoint: 10.0°C (50°F) [RH = 94%]
Pressure (altimeter): 30.09 inches Hg (1019.0 mb)
[Sea-level pressure: 1019.4 mb]
Winds: from the W (280 degrees) at 5 MPH (4 knots; 2.1 m/s)
Visibility: 15 miles (24 km)
Ceiling: at least 12,000 feet AGL
Clouds: clear skies
Weather: no significant weather observed at this time

METAR text: CYQB 240700Z VRB02KT 15SM SKC 11/10 A3008 RMK SLP188
Conditions at: CYQB (QUEBEC , QC, CA) observed 0700 UTC 24 August 2019
Temperature: 11.0°C (52°F)
Dewpoint: 10.0°C (50°F) [RH = 94%]
Pressure (altimeter): 30.08 inches Hg (1018.7 mb)
[Sea-level pressure: 1018.8 mb]
Winds: variable direction winds at 2 MPH (2 knots; 1.0 m/s)
Visibility: 15 miles (24 km)
Ceiling: at least 12,000 feet AGL
Clouds: clear skies
Weather: no significant weather observed at this time

METAR text: CYQB 240600Z 19004KT 190V350 15SM FEW032 13/10 A3006 RMK SC1 SLP183
Conditions at: CYQB (QUEBEC , QC, CA) observed 0600 UTC 24 August 2019
Temperature: 13.0°C (55°F)
Dewpoint: 10.0°C (50°F) [RH = 82%]
Pressure (altimeter): 30.06 inches Hg (1018.0 mb)
[Sea-level pressure: 1018.3 mb]
Winds: from the S (190 degrees) at 5 MPH (4 knots; 2.1 m/s)
Visibility: 15 miles (24 km)
Ceiling: at least 12,000 feet AGL
Clouds: few clouds at 3200 feet AGL
Weather: no significant weather observed at this time

METAR text: CYQB 240500Z 21003KT 200V270 15SM FEW032 13/11 A3006 RMK SC2 SLP181
Conditions at: CYQB (QUEBEC , QC, CA) observed 0500 UTC 24 August 2019
Temperature: 13.0°C (55°F)
Dewpoint: 11.0°C (52°F) [RH = 88%]
Pressure (altimeter): 30.06 inches Hg (1018.0 mb)
[Sea-level pressure: 1018.1 mb]
Winds: from the SSW (210 degrees) at 3 MPH (3 knots; 1.5 m/s)
Visibility: 15 miles (24 km)
Ceiling: at least 12,000 feet AGL
Clouds: few clouds at 3200 feet AGL
Weather: no significant weather observed at this time

METAR text: CYQB 240400Z 25008KT 15SM SCT032 12/10 A3005 RMK SC3 SLP178
Conditions at: CYQB (QUEBEC , QC, CA) observed 0400 UTC 24 August 2019
Temperature: 12.0°C (54°F)
Dewpoint: 10.0°C (50°F) [RH = 88%]
Pressure (altimeter): 30.05 inches Hg (1017.7 mb)
[Sea-level pressure: 1017.8 mb]
Winds: from the WSW (250 degrees) at 9 MPH (8 knots; 4.1 m/s)
Visibility: 15 miles (24 km)
Ceiling: at least 12,000 feet AGL
Clouds: scattered clouds at 3200 feet AGL
Weather: no significant weather observed at this time

METAR text: CYQB 240300Z 25006KT 15SM BKN032 13/11 A3004 RMK SC5 SLP175
Conditions at: CYQB (QUEBEC , QC, CA) observed 0300 UTC 24 August 2019
Temperature: 13.0°C (55°F)
Dewpoint: 11.0°C (52°F) [RH = 88%]
Pressure (altimeter): 30.04 inches Hg (1017.4 mb)
[Sea-level pressure: 1017.5 mb]
Winds: from the WSW (250 degrees) at 7 MPH (6 knots; 3.1 m/s)
Visibility: 15 miles (24 km)
Ceiling: 3200 feet AGL
Clouds: broken clouds at 3200 feet AGL
Weather: no significant weather observed at this time

METAR text: CYQB 240200Z 26008KT 15SM BKN033 BKN090 15/11 A3003 RMK SC5AC1 SLP172
Conditions at: CYQB (QUEBEC , QC, CA) observed 0200 UTC 24 August 2019
Temperature: 15.0°C (59°F)
Dewpoint: 11.0°C (52°F) [RH = 77%]
Pressure (altimeter): 30.03 inches Hg (1017.0 mb)
[Sea-level pressure: 1017.2 mb]
Winds: from the W (260 degrees) at 9 MPH (8 knots; 4.1 m/s)
Visibility: 15 miles (24 km)
Ceiling: 3300 feet AGL
Clouds: broken clouds at 3300 feet AGL
broken clouds at 9000 feet AGL
Weather: no significant weather observed at this time

METAR text: CYQB 240100Z 21003KT 190V260 20SM FEW030 SCT090 15/10 A3003 RMK SC2AC2 PRESRR SLP173
Conditions at: CYQB (QUEBEC , QC, CA) observed 0100 UTC 24 August 2019
Temperature: 15.0°C (59°F)
Dewpoint: 10.0°C (50°F) [RH = 72%]
Pressure (altimeter): 30.03 inches Hg (1017.0 mb)
[Sea-level pressure: 1017.3 mb]
Winds: from the SSW (210 degrees) at 3 MPH (3 knots; 1.5 m/s)
Visibility: 20 miles (32 km)
Ceiling: at least 12,000 feet AGL
Clouds: few clouds at 3000 feet AGL
scattered clouds at 9000 feet AGL
Weather: no significant weather observed at this time

METAR text: CYQB 240000Z 27005KT 30SM FEW030 BKN085 16/11 A3001 RMK SC1AC6 SC TR SLP165 DENSITY ALT 300FT
Conditions at: CYQB (QUEBEC , QC, CA) observed 0000 UTC 24 August 2019
Temperature: 16.0°C (61°F)
Dewpoint: 11.0°C (52°F) [RH = 72%]
Pressure (altimeter): 30.01 inches Hg (1016.3 mb)
[Sea-level pressure: 1016.5 mb]
Winds: from the W (270 degrees) at 6 MPH (5 knots; 2.6 m/s)
Visibility: 30 miles (48 km)
Ceiling: 8500 feet AGL
Clouds: few clouds at 3000 feet AGL
broken clouds at 8500 feet AGL
Weather: no significant weather observed at this time

METAR text: CYQB 232300Z 27004KT 30SM FEW050 BKN078 17/11 A2999 RMK SC1AC6 SC TR SLP158 DENSITY ALT 500FT
Conditions at: CYQB (QUEBEC , QC, CA) observed 2300 UTC 23 August 2019
Temperature: 17.0°C (63°F)
Dewpoint: 11.0°C (52°F) [RH = 68%]
Pressure (altimeter): 29.99 inches Hg (1015.7 mb)
[Sea-level pressure: 1015.8 mb]
Winds: from the W (270 degrees) at 5 MPH (4 knots; 2.1 m/s)
Visibility: 30 miles (48 km)
Ceiling: 7800 feet AGL
Clouds: few clouds at 5000 feet AGL
broken clouds at 7800 feet AGL
Weather: no significant weather observed at this time

METAR text: CYQB 232200Z 27008KT 250V310 30SM FEW063 BKN078 18/10 A2998 RMK SC1AC5 SLP154 DENSITY ALT 600FT
Conditions at: CYQB (QUEBEC , QC, CA) observed 2200 UTC 23 August 2019
Temperature: 18.0°C (64°F)
Dewpoint: 10.0°C (50°F) [RH = 59%]
Pressure (altimeter): 29.98 inches Hg (1015.3 mb)
[Sea-level pressure: 1015.4 mb]
Winds: from the W (270 degrees) at 9 MPH (8 knots; 4.1 m/s)
Visibility: 30 miles (48 km)
Ceiling: 7800 feet AGL
Clouds: few clouds at 6300 feet AGL
broken clouds at 7800 feet AGL
Weather: no significant weather observed at this time

METAR text: CYQB 232100Z 29008G15KT 250V310 30SM FEW048 OVC063 19/10 A2997 RMK CU2SC6 VIRGA SLP151 DENSITY ALT 700FT
Conditions at: CYQB (QUEBEC , QC, CA) observed 2100 UTC 23 August 2019
Temperature: 19.0°C (66°F)
Dewpoint: 10.0°C (50°F) [RH = 56%]
Pressure (altimeter): 29.97 inches Hg (1015.0 mb)
[Sea-level pressure: 1015.1 mb]
Winds: from the WNW (290 degrees) at 9 MPH (8 knots; 4.1 m/s)
gusting to 17 MPH (15 knots; 7.7 m/s)
Visibility: 30 miles (48 km)
Ceiling: 6300 feet AGL
Clouds: few clouds at 4800 feet AGL
overcast cloud deck at 6300 feet AGL
Weather: no significant weather observed at this time

METAR text: CYQB 232000Z 29009G16KT 250V330 30SM FEW050 OVC061 19/10 A2995 RMK SC2SC6 SLP144 DENSITY ALT 800FT
Conditions at: CYQB (QUEBEC , QC, CA) observed 2000 UTC 23 August 2019
Temperature: 19.0°C (66°F)
Dewpoint: 10.0°C (50°F) [RH = 56%]
Pressure (altimeter): 29.95 inches Hg (1014.3 mb)
[Sea-level pressure: 1014.4 mb]
Winds: from the WNW (290 degrees) at 10 MPH (9 knots; 4.6 m/s)
gusting to 18 MPH (16 knots; 8.2 m/s)
Visibility: 30 miles (48 km)
Ceiling: 6100 feet AGL
Clouds: few clouds at 5000 feet AGL
overcast cloud deck at 6100 feet AGL
Weather: no significant weather observed at this time

METAR text: CYQB 231900Z 27013G19KT 30SM FEW060 BKN070 20/10 A2993 RMK SC2AC5 SLP136 DENSITY ALT 900FT
Conditions at: CYQB (QUEBEC , QC, CA) observed 1900 UTC 23 August 2019
Temperature: 20.0°C (68°F)
Dewpoint: 10.0°C (50°F) [RH = 53%]
Pressure (altimeter): 29.93 inches Hg (1013.6 mb)
[Sea-level pressure: 1013.6 mb]
Winds: from the W (270 degrees) at 15 MPH (13 knots; 6.7 m/s)
gusting to 22 MPH (19 knots; 9.8 m/s)
Visibility: 30 miles (48 km)
Ceiling: 7000 feet AGL
Clouds: few clouds at 6000 feet AGL
broken clouds at 7000 feet AGL
Weather: no significant weather observed at this time

METAR text: CYQB 231800Z 26016G22KT 30SM BKN063 20/09 A2991 RMK SC6 SLP132 DENSITY ALT 900FT
Conditions at: CYQB (QUEBEC , QC, CA) observed 1800 UTC 23 August 2019
Temperature: 20.0°C (68°F)
Dewpoint: 9.0°C (48°F) [RH = 49%]
Pressure (altimeter): 29.91 inches Hg (1013.0 mb)
[Sea-level pressure: 1013.2 mb]
Winds: from the W (260 degrees) at 18 MPH (16 knots; 8.2 m/s)
gusting to 25 MPH (22 knots; 11.3 m/s)
Visibility: 30 miles (48 km)
Ceiling: 6300 feet AGL
Clouds: broken clouds at 6300 feet AGL
Weather: no significant weather observed at this time

METAR text: CYQB 231700Z 26011KT 30SM BKN045 BKN056 19/10 A2992 RMK SC5SC1 SLP133 DENSITY ALT 800FT
Conditions at: CYQB (QUEBEC , QC, CA) observed 1700 UTC 23 August 2019
Temperature: 19.0°C (66°F)
Dewpoint: 10.0°C (50°F) [RH = 56%]
Pressure (altimeter): 29.92 inches Hg (1013.3 mb)
[Sea-level pressure: 1013.3 mb]
Winds: from the W (260 degrees) at 13 MPH (11 knots; 5.7 m/s)
Visibility: 30 miles (48 km)
Ceiling: 4500 feet AGL
Clouds: broken clouds at 4500 feet AGL
broken clouds at 5600 feet AGL
Weather: no significant weather observed at this time

METAR text: CYQB 231600Z 28012G18KT 30SM BKN045 18/10 A2992 RMK SC6 SLP135 DENSITY ALT 700FT
Conditions at: CYQB (QUEBEC , QC, CA) observed 1600 UTC 23 August 2019
Temperature: 18.0°C (64°F)
Dewpoint: 10.0°C (50°F) [RH = 59%]
Pressure (altimeter): 29.92 inches Hg (1013.3 mb)
[Sea-level pressure: 1013.5 mb]
Winds: from the W (280 degrees) at 14 MPH (12 knots; 6.2 m/s)
gusting to 21 MPH (18 knots; 9.3 m/s)
Visibility: 30 miles (48 km)
Ceiling: 4500 feet AGL
Clouds: broken clouds at 4500 feet AGL
Weather: no significant weather observed at this time

METAR text: CYQB 231500Z 29010G18KT 250V330 30SM BKN042 BKN051 18/10 A2992 RMK SC5SC1 SLP135 DENSITY ALT 700FT
Conditions at: CYQB (QUEBEC , QC, CA) observed 1500 UTC 23 August 2019
Temperature: 18.0°C (64°F)
Dewpoint: 10.0°C (50°F) [RH = 59%]
Pressure (altimeter): 29.92 inches Hg (1013.3 mb)
[Sea-level pressure: 1013.5 mb]
Winds: from the WNW (290 degrees) at 12 MPH (10 knots; 5.1 m/s)
gusting to 21 MPH (18 knots; 9.3 m/s)
Visibility: 30 miles (48 km)
Ceiling: 4200 feet AGL
Clouds: broken clouds at 4200 feet AGL
broken clouds at 5100 feet AGL
Weather: no significant weather observed at this time

METAR text: CYQB 231400Z 26012KT 30SM SCT032 BKN100 17/11 A2992 RMK SC4AC1 SLP133 DENSITY ALT 600FT
Conditions at: CYQB (QUEBEC , QC, CA) observed 1400 UTC 23 August 2019
Temperature: 17.0°C (63°F)
Dewpoint: 11.0°C (52°F) [RH = 68%]
Pressure (altimeter): 29.92 inches Hg (1013.3 mb)
[Sea-level pressure: 1013.3 mb]
Winds: from the W (260 degrees) at 14 MPH (12 knots; 6.2 m/s)
Visibility: 30 miles (48 km)
Ceiling: 10000 feet AGL
Clouds: scattered clouds at 3200 feet AGL
broken clouds at 10000 feet AGL
Weather: no significant weather observed at this time

METAR text: CYQB 231300Z 27008KT 240V320 30SM SCT027 SCT100 16/11 A2993 RMK SC4AC1 AC TR SLP136 DENSITY ALT 500FT
Conditions at: CYQB (QUEBEC , QC, CA) observed 1300 UTC 23 August 2019
Temperature: 16.0°C (61°F)
Dewpoint: 11.0°C (52°F) [RH = 72%]
Pressure (altimeter): 29.93 inches Hg (1013.6 mb)
[Sea-level pressure: 1013.6 mb]
Winds: from the W (270 degrees) at 9 MPH (8 knots; 4.1 m/s)
Visibility: 30 miles (48 km)
Ceiling: at least 12,000 feet AGL
Clouds: scattered clouds at 2700 feet AGL
scattered clouds at 10000 feet AGL
Weather: no significant weather observed at this time

METAR text: CYQB 231200Z 22008KT 30SM FEW025 FEW100 15/11 A2992 RMK SC1AC1 AC TR SLP133 DENSITY ALT 300FT
Conditions at: CYQB (QUEBEC , QC, CA) observed 1200 UTC 23 August 2019
Temperature: 15.0°C (59°F)
Dewpoint: 11.0°C (52°F) [RH = 77%]
Pressure (altimeter): 29.92 inches Hg (1013.3 mb)
[Sea-level pressure: 1013.3 mb]
Winds: from the SW (220 degrees) at 9 MPH (8 knots; 4.1 m/s)
Visibility: 30 miles (48 km)
Ceiling: at least 12,000 feet AGL
Clouds: few clouds at 2500 feet AGL
few clouds at 10000 feet AGL
Weather: no significant weather observed at this time

METAR text: CYQB 231100Z 26008KT 30SM FEW025 FEW090 13/11 A2990 RMK SC1AC1 AC TR SLP129
Conditions at: CYQB (QUEBEC , QC, CA) observed 1100 UTC 23 August 2019
Temperature: 13.0°C (55°F)
Dewpoint: 11.0°C (52°F) [RH = 88%]
Pressure (altimeter): 29.90 inches Hg (1012.6 mb)
[Sea-level pressure: 1012.9 mb]
Winds: from the W (260 degrees) at 9 MPH (8 knots; 4.1 m/s)
Visibility: 30 miles (48 km)
Ceiling: at least 12,000 feet AGL
Clouds: few clouds at 2500 feet AGL
few clouds at 9000 feet AGL
Weather: no significant weather observed at this time

METAR text: CYQB 231000Z 26003KT 230V310 30SM FEW025 FEW090 10/09 A2988 RMK SC1AC1 SC TR SLP121
Conditions at: CYQB (QUEBEC , QC, CA) observed 1000 UTC 23 August 2019
Temperature: 10.0°C (50°F)
Dewpoint: 9.0°C (48°F) [RH = 93%]
Pressure (altimeter): 29.88 inches Hg (1011.9 mb)
[Sea-level pressure: 1012.1 mb]
Winds: from the W (260 degrees) at 3 MPH (3 knots; 1.5 m/s)
Visibility: 30 miles (48 km)
Ceiling: at least 12,000 feet AGL
Clouds: few clouds at 2500 feet AGL
few clouds at 9000 feet AGL
Weather: no significant weather observed at this time

METAR text: CYQB 230900Z 27004KT 250V320 15SM FEW090 11/10 A2987 RMK AC1 SLP117
Conditions at: CYQB (QUEBEC , QC, CA) observed 0900 UTC 23 August 2019
Temperature: 11.0°C (52°F)
Dewpoint: 10.0°C (50°F) [RH = 94%]
Pressure (altimeter): 29.87 inches Hg (1011.6 mb)
[Sea-level pressure: 1011.7 mb]
Winds: from the W (270 degrees) at 5 MPH (4 knots; 2.1 m/s)
Visibility: 15 miles (24 km)
Ceiling: at least 12,000 feet AGL
Clouds: few clouds at 9000 feet AGL
Weather: no significant weather observed at this time

METAR text: CYQB 230800Z 25006KT 15SM FEW094 11/10 A2987 RMK AC1 AC TR SLP116
Conditions at: CYQB (QUEBEC , QC, CA) observed 0800 UTC 23 August 2019
Temperature: 11.0°C (52°F)
Dewpoint: 10.0°C (50°F) [RH = 94%]
Pressure (altimeter): 29.87 inches Hg (1011.6 mb)
[Sea-level pressure: 1011.6 mb]
Winds: from the WSW (250 degrees) at 7 MPH (6 knots; 3.1 m/s)
Visibility: 15 miles (24 km)
Ceiling: at least 12,000 feet AGL
Clouds: few clouds at 9400 feet AGL
Weather: no significant weather observed at this time

METAR text: CYQB 230700Z 25003KT 180V280 15SM SKC 12/10 A2986 RMK SLP113
Conditions at: CYQB (QUEBEC , QC, CA) observed 0700 UTC 23 August 2019
Temperature: 12.0°C (54°F)
Dewpoint: 10.0°C (50°F) [RH = 88%]
Pressure (altimeter): 29.86 inches Hg (1011.3 mb)
[Sea-level pressure: 1011.3 mb]
Winds: from the WSW (250 degrees) at 3 MPH (3 knots; 1.5 m/s)
Visibility: 15 miles (24 km)
Ceiling: at least 12,000 feet AGL
Clouds: clear skies
Weather: no significant weather observed at this time

METAR text: CYQB 230600Z 28004KT 15SM SKC 13/10 A2985 RMK SLP110
Conditions at: CYQB (QUEBEC , QC, CA) observed 0600 UTC 23 August 2019
Temperature: 13.0°C (55°F)
Dewpoint: 10.0°C (50°F) [RH = 82%]
Pressure (altimeter): 29.85 inches Hg (1010.9 mb)
[Sea-level pressure: 1011.0 mb]
Winds: from the W (280 degrees) at 5 MPH (4 knots; 2.1 m/s)
Visibility: 15 miles (24 km)
Ceiling: at least 12,000 feet AGL
Clouds: clear skies
Weather: no significant weather observed at this time

METAR text: CYQB 230500Z 30003KT 270V340 15SM FEW093 14/10 A2984 RMK AC1 AC TR SLP105 DENSITY ALT 300FT
Conditions at: CYQB (QUEBEC , QC, CA) observed 0500 UTC 23 August 2019
Temperature: 14.0°C (57°F)
Dewpoint: 10.0°C (50°F) [RH = 77%]
Pressure (altimeter): 29.84 inches Hg (1010.6 mb)
[Sea-level pressure: 1010.5 mb]
Winds: from the WNW (300 degrees) at 3 MPH (3 knots; 1.5 m/s)
Visibility: 15 miles (24 km)
Ceiling: at least 12,000 feet AGL
Clouds: few clouds at 9300 feet AGL
Weather: no significant weather observed at this time

METAR text: CYQB 230400Z 32005KT 270V030 15SM FEW094 16/11 A2983 RMK AC1 AC TR SLP104 DENSITY ALT 600FT
Conditions at: CYQB (QUEBEC , QC, CA) observed 0400 UTC 23 August 2019
Temperature: 16.0°C (61°F)
Dewpoint: 11.0°C (52°F) [RH = 72%]
Pressure (altimeter): 29.83 inches Hg (1010.2 mb)
[Sea-level pressure: 1010.4 mb]
Winds: from the NW (320 degrees) at 6 MPH (5 knots; 2.6 m/s)
Visibility: 15 miles (24 km)
Ceiling: at least 12,000 feet AGL
Clouds: few clouds at 9400 feet AGL
Weather: no significant weather observed at this time

METAR text: CYQB 230300Z 00000KT 15SM FEW094 17/11 A2982 RMK AC1 AC TR SLP099 DENSITY ALT 700FT
Conditions at: CYQB (QUEBEC , QC, CA) observed 0300 UTC 23 August 2019
Temperature: 17.0°C (63°F)
Dewpoint: 11.0°C (52°F) [RH = 68%]
Pressure (altimeter): 29.82 inches Hg (1009.9 mb)
[Sea-level pressure: 1009.9 mb]
Winds: calm
Visibility: 15 miles (24 km)
Ceiling: at least 12,000 feet AGL
Clouds: few clouds at 9400 feet AGL
Weather: no significant weather observed at this time

Forecast for: CYQB (QUEBEC , QC, CA)
Text: TAF CYQB 241138Z 2412/2512 VRB03KT P6SM BKN040
Forecast period: 1200 UTC 24 August 2019 to 1200 UTC 25 August 2019
Forecast type: FROM: standard forecast or significant change
Winds: variable direction winds at 3 MPH (3 knots; 1.5 m/s)
Visibility: 6 or more miles 10+ km)
Ceiling: 4000 feet AGL
Clouds: broken clouds at 4000 feet AGL
Weather: no significant weather forecast for this period
Text: BECMG 2412/2414 08006KT
Forecast period: 1200 to 1700 UTC 24 August 2019
Forecast type: BECOMING: Conditions expected to become as follows by 1400 UTC 24 August 2019
Winds: from the E (80 degrees) at 7 MPH (6 knots; 3.1 m/s)
Visibility: 6 or more miles 10+ km)
Ceiling: 4000 feet AGL
Clouds: broken clouds at 4000 feet AGL
Weather: no significant weather forecast for this period
Text: FM241700 09010KT P6SM SCT040
Forecast period: 1700 UTC 24 August 2019 to 0000 UTC 25 August 2019
Forecast type: FROM: standard forecast or significant change
Winds: from the E (90 degrees) at 12 MPH (10 knots; 5.1 m/s)
Visibility: 6 or more miles 10+ km)
Ceiling: at least 12,000 feet AGL
Clouds: scattered clouds at 4000 feet AGL
Weather: no significant weather forecast for this period
Text: TEMPO 2417/2424 BKN040
Forecast period: 1700 UTC 24 August 2019 to 0000 UTC 25 August 2019
Forecast type: TEMPORARY: The following changes expected for less than half the time period
Visibility: missing
Ceiling: 4000 feet AGL
Clouds: broken clouds at 4000 feet AGL
Weather: no significant weather forecast for this period
Text: FM250000 06005KT P6SM SCT050 RMK NXT FCST BY 241800Z
Forecast period: 0000 to 1200 UTC 25 August 2019
Forecast type: FROM: standard forecast or significant change
Winds: from the ENE (60 degrees) at 6 MPH (5 knots; 2.6 m/s)
Visibility: 6 or more miles 10+ km)
Ceiling: at least 12,000 feet AGL
Clouds: scattered clouds at 5000 feet AGL
Weather: no significant weather forecast for this period